• Join FlightAware (Why Join?)
  • Login
  • US Flag GB Flag 
18:54 EDT


 

Airport Tracker/Info


-or-


 

Live Flight TrackerFlight Track Log ✈ JIA2328 ✈ 05-May-2013 ✈ KPNS - KDCA

Flight Track Log - Related Links

Times and Time Zones

All times are in EDT time to prevent confusion due to time zone crossing. See the JIA2328 flight status page for this flight to view local times or setup timezone preferences in your user account.

Time Position Orientation Groundspeed Altitude Reporting Facility
EDT Latitude Longitude Course Direction KTS MPH feet Rate Location/Type
07:07 30.4572 -87.1889 54° Northeast 145 167 800  Level Jacksonville Center
07:08 30.3956 -87.1597 158° South 217 250 3,500 2,040 Climbing Jacksonville Center
07:09 30.3778 -87.1300 125° Southeast 246 283 4,400 2,040 Climbing Jacksonville Center
07:10 30.6508 -86.9155 50° Northeast  Level FlightAware Approximate
07:10 30.4114 -87.0617 60° Northeast 218 251 6,600  Level Jacksonville Center
07:11 30.7141 -86.8270 50° Northeast  Level FlightAware Approximate
07:11 30.4833 -87.0239 24° Northeast 215 247 9,400  Level Jacksonville Center
07:12 30.7738 -86.7354 54° Northeast  Level FlightAware Approximate
07:12 30.5642 -86.9817 24° Northeast 261 300 11,400  Level Jacksonville Center
07:13 30.6469 -86.9369 25° Northeast 294 338 13,600 1,920 Climbing Jacksonville Center
07:14 30.7297 -86.8919 25° Northeast 310 357 15,300 1,740 Climbing Jacksonville Center
07:15 30.8050 -86.8203 39° Northeast 331 381 17,100 1,620 Climbing Jacksonville Center
07:16 30.8808 -86.7339 44° Northeast 357 411 18,600 1,260 Climbing Jacksonville Center
07:17 30.9525 -86.6397 48° Northeast 368 423 19,700 1,020 Climbing Jacksonville Center
07:18 31.0325 -86.5461 45° Northeast 387 445 20,700 1,020 Climbing Jacksonville Center
07:19 31.1147 -86.4472 46° Northeast 403 464 21,800 960 Climbing Jacksonville Center
07:20 31.2356 -86.3044 45° Northeast 430 495 23,200 900 Climbing Atlanta Center
07:21 31.3208 -86.1997 46° Northeast 430 495 24,200 960 Climbing Atlanta Center
07:22 31.4061 -86.0947 46° Northeast 435 501 25,200 960 Climbing Atlanta Center
07:23 31.4956 -85.9872 46° Northeast 442 509 26,200 960 Climbing Atlanta Center
07:24 31.5806 -85.8842 46° Northeast 442 509 27,200 840 Climbing Atlanta Center
07:25 31.6678 -85.7761 47° Northeast 442 509 27,900 600 Climbing Atlanta Center
07:26 31.7567 -85.6681 46° Northeast 442 509 28,400 480 Climbing Atlanta Center
07:27 31.8458 -85.5547 47° Northeast 455 524 28,900 300 Climbing Atlanta Center
07:28 31.9389 -85.4436 45° Northeast 461 531 29,000  Climbing Atlanta Center
07:29 32.0342 -85.3228 47° Northeast 475 547 29,000  Level Atlanta Center
07:30 32.1292 -85.2086 45° Northeast 480 552 29,000  Level Atlanta Center
07:31 32.2200 -85.0969 46° Northeast 480 552 29,000  Level Atlanta Center
07:32 32.3067 -84.9800 49° Northeast 473 544 29,000  Level Atlanta Center
07:33 32.3992 -84.8703 45° Northeast 467 537 29,000  Level Atlanta Center
07:34 32.4856 -84.7653 46° Northeast 462 532 29,000  Level Atlanta Center
07:35 32.5694 -84.6575 47° Northeast 445 512 29,000  Level Atlanta Center
07:36 32.6556 -84.5519 46° Northeast 445 512 29,000  Level Atlanta Center
07:37 32.7394 -84.4439 47° Northeast 445 512 29,000  Level Atlanta Center
07:38 32.8317 -84.3256 47° Northeast 440 506 29,000  Level Atlanta Center
07:39 32.9153 -84.2194 47° Northeast 440 506 29,000  Level Atlanta Center
07:40 32.9969 -84.1156 47° Northeast 434 499 29,000  Level Atlanta Center
07:41 33.0783 -84.0092 48° Northeast 429 494 29,000  Level Atlanta Center
07:42 33.1617 -83.9047 46° Northeast 429 494 29,000  Level Atlanta Center
07:43 33.2450 -83.7978 47° Northeast 429 494 29,000  Level Atlanta Center
07:44 33.3283 -83.6908 47° Northeast 429 494 29,000  Level Atlanta Center
07:45 33.4094 -83.5833 48° Northeast 429 494 29,000  Level Atlanta Center
07:46 33.4903 -83.4758 48° Northeast 429 494 29,000  Level Atlanta Center
07:47 33.5733 -83.3681 47° Northeast 429 494 29,000  Level Atlanta Center
07:48 33.6561 -83.2625 47° Northeast 429 494 29,000  Level Atlanta Center
07:49 33.7347 -83.1569 48° Northeast 422 486 29,000  Level Atlanta Center
07:50 33.8236 -83.0561 43° Northeast 422 486 29,000  Level Atlanta Center
07:51 33.8981 -82.9628 46° Northeast 432 497 29,000  Level Atlanta Center
07:52 33.9722 -82.8514 51° Northeast 427 491 29,000  Level Atlanta Center
07:53 34.0503 -82.7425 49° Northeast 420 483 29,000  Level Atlanta Center
07:54 34.1286 -82.6361 48° Northeast 420 483 29,000  Level Atlanta Center
07:55 34.2147 -82.5217 48° Northeast 426 490 29,000  Level Atlanta Center
07:56 34.2928 -82.4144 49° Northeast 421 484 29,000  Level Atlanta Center
07:57 34.3728 -82.3097 47° Northeast 421 484 29,000  Level Atlanta Center
07:58 34.4483 -82.2075 48° Northeast 416 479 29,000  Level Atlanta Center
07:59 34.5261 -82.1025 48° Northeast 416 479 29,000  Level Atlanta Center
08:00 34.6058 -81.9947 48° Northeast 416 479 29,000  Level Atlanta Center
08:01 34.6811 -81.8892 49° Northeast 416 479 29,000  Level Atlanta Center
08:02 34.7628 -81.7808 47° Northeast 426 490 29,000  Level Atlanta Center
08:03 34.8400 -81.6750 48° Northeast 421 484 29,000  Level Atlanta Center
08:04 34.9172 -81.5664 49° Northeast 421 484 29,000  Level Atlanta Center
08:05 34.9942 -81.4578 49° Northeast 421 484 29,000  Level Atlanta Center
08:06 35.0692 -81.3564 48° Northeast 421 484 29,000  Level Atlanta Center
08:07 35.1461 -81.2472 49° Northeast 416 479 29,100 300 Climbing Atlanta Center
08:08 35.2250 -81.1403 48° Northeast 416 479 29,600 480 Climbing Atlanta Center
08:09 35.3039 -81.0306 49° Northeast 421 484 30,100 600 Climbing Atlanta Center
08:10 35.3822 -80.9183 49° Northeast 427 491 30,800 420 Climbing Atlanta Center
08:11 35.4628 -80.8031 49° Northeast 427 491 31,000 60 Climbing Atlanta Center
08:12 35.5453 -80.6900 48° Northeast 432 497 31,000  Level Atlanta Center
08:13 35.6256 -80.5769 49° Northeast 432 497 31,000  Level Atlanta Center
08:14 35.7058 -80.4611 50° Northeast 432 497 31,000  Level Atlanta Center
08:15 35.7839 -80.3500 49° Northeast 432 497 31,000  Level Atlanta Center
08:16 35.8578 -80.2417 50° Northeast 425 489 31,000  Level Atlanta Center
08:18 35.9958 -80.0514 48° Northeast 404 465 31,000  Level Washington Center
08:19 36.0686 -79.9400 51° Northeast 404 465 31,000  Level Washington Center
08:20 36.1356 -79.8203 55° Northeast 409 471 31,000 -540 Level Washington Center
08:21 36.2069 -79.6928 55° Northeast 434 499 30,000 -540 Descending Washington Center
08:22 36.2867 -79.5553 54° Northeast 441 507 30,000  Level Washington Center
08:23 36.3575 -79.4297 55° Northeast 436 502 30,000 -540 Level Washington Center
08:24 36.4242 -79.3014 57° Northeast 436 502 29,000 -1,140 Descending Washington Center
08:25 36.4881 -79.1881 55° Northeast 436 502 27,800 -1,200 Descending Washington Center
08:26 36.5650 -79.0572 54° Northeast 430 495 26,600 -1,140 Descending Washington Center
08:27 36.6289 -78.9411 56° Northeast 413 475 25,600 -840 Descending Washington Center
08:28 36.6903 -78.8297 55° Northeast 400 460 25,000 -300 Descending Washington Center
08:29 36.7392 -78.7125 62° Northeast 388 447 25,000  Level Washington Center
08:30 36.7508 -78.5808 84° East 375 432 25,000  Level Washington Center
08:31 36.7600 -78.4644 84° East 375 432 25,000  Level Washington Center
08:32 36.7675 -78.3300 86° East 375 432 25,000  Level Washington Center
08:33 36.7767 -78.1981 85° East 380 437 25,000 -240 Level Washington Center
08:34 36.7881 -78.0481 85° East 387 445 24,600 -900 Descending Washington Center
08:35 36.8653 -77.9492 46° Northeast 366 421 23,300 -1,260 Descending Washington Center
08:36 36.9544 -77.8608 38° Northeast 379 436 22,200 -660 Descending Washington Center
08:37 37.0417 -77.7775 37° Northeast 385 443 22,000 -120 Descending Washington Center
08:38 37.1469 -77.7233 22° Northeast 395 455 22,000  Level Washington Center
08:39 37.2522 -77.6714 21° North 395 455 22,000  Level Washington Center
08:40 37.3572 -77.6194 21° North 395 455 22,000 -600 Level Washington Center
08:41 37.4625 -77.5672 21° North 400 460 20,900 -1,380 Descending Washington Center
08:42 37.5656 -77.5175 21° North 400 460 19,400 -1,320 Descending Washington Center
08:43 37.6453 -77.4803 20° North 389 448 18,300 -1,080 Descending Washington Center
08:44 37.7378 -77.4300 23° Northeast 355 409 17,300 -1,140 Descending Washington Center
08:45 37.8136 -77.3792 28° Northeast 322 371 16,100 -1,200 Descending Washington Center
08:46 37.8817 -77.3019 42° Northeast 311 358 14,900 -1,260 Descending Washington Center
08:47 37.9572 -77.2589 24° Northeast 301 346 13,700 -1,200 Descending Washington Center
08:48 38.0411 -77.2369 12° North 296 341 12,600 -1,200 Descending Washington Center
08:49 38.1206 -77.2150 12° North 296 341 11,400 -1,260 Descending Washington Center
08:50 38.2000 -77.1903 14° North 296 341 10,200 -720 Descending Washington Center
08:51 38.2861 -77.1578 17° North 296 341 10,000 -300 Descending Washington Center
08:52 38.3469 -77.1325 18° North 277 319 9,600 -900 Descending Washington Center
08:53 38.3686 -77.0614 69° East 212 244 8,300 -1,320 Descending Washington Center
08:54 38.4169 -77.0225 32° Northeast 182 209 7,100 -660 Descending Washington Center
08:55 38.4753 -77.0211 North 182 209 7,000 7,440 Descending Washington Center
08:56 38.5339 -77.0194 North 196 226 22,000 -1,020 Climbing Washington Center
08:57 38.5922 -77.0261 355° North 202 232 5,000 -10,560 Descending Washington Center
08:58 38.6333 -77.0167 10° North 206 237 4,800 -1,080 Descending Potomac TRACON
08:59 38.6833 -77.0167 360° North 209 241 3,300 -1,320 Descending Potomac TRACON
08:59 38.7333 -77.0333 345° North 169 194 2,300 -1,020 Descending Potomac TRACON
09:01 38.7833 -77.0333 360° North 149 171 1,300 -840 Descending Potomac TRACON
09:01 38.8167 -77.0167 21° North 136 157 700 -720 Descending Potomac TRACON